Time;durP1;ratioP1;P1;durP2;ratioP2;P2;SDS_P1;SDS_P2;PMS_P1;PMS_P2;Temp;Humidity;BMP_temperature;BMP_pressure;BME280_temperature;BME280_humidity;BME280_pressure;Samples;Min_cycle;Max_cycle;Signal;HPM_P1;HPM_P2
2021/12/17 00:01:05;;;;;;;4.45;3.80;;;1.50;94.00;1.10;97579.00;;;;5027405;27;87414;-61
2021/12/17 00:03:47;;;;;;;6.95;3.60;;;1.40;94.00;1.10;97585.00;;;;5023001;28;87004;-61
2021/12/17 00:06:30;;;;;;;;;;;1.50;94.00;1.10;97594.00;;;;5018553;28;87789;-61
2021/12/17 00:08:57;;;;;;;;;;;1.40;93.90;1.10;97596.00;;;;5023642;28;87950;-61
2021/12/17 00:11:24;;;;;;;5.65;3.92;;;1.40;94.00;1.00;97596.00;;;;5031389;28;87335;-61
2021/12/17 00:13:53;;;;;;;5.40;4.90;;;1.40;94.00;1.00;97601.00;;;;5043143;28;87024;-62
2021/12/17 00:16:23;;;;;;;10.23;5.75;;;1.40;94.10;1.00;97602.00;;;;5033550;27;88418;-62
2021/12/17 00:48:44;;;;;;;7.47;6.30;;;1.50;93.90;1.10;97628.00;;;;5022168;28;87962;-61
2021/12/17 00:53:50;;;;;;;7.93;6.45;;;1.50;93.90;1.10;97622.00;;;;5020419;28;87088;-61
2021/12/17 00:56:16;;;;;;;5.53;4.80;;;1.50;93.80;1.10;97622.00;;;;5022081;28;87189;-61
2021/12/17 00:58:44;;;;;;;5.40;4.90;;;1.50;93.50;1.10;97629.00;;;;5020726;28;87574;-61
2021/12/17 01:01:11;;;;;;;7.50;5.45;;;1.40;93.50;1.10;97626.00;;;;5022537;28;88847;-61
2021/12/17 01:03:37;;;;;;;6.25;5.60;;;1.40;93.60;1.00;97623.00;;;;5021023;28;87401;-61
2021/12/17 01:06:05;;;;;;;7.07;5.10;;;1.40;93.50;1.00;97629.00;;;;5020813;28;87138;-61
2021/12/17 01:08:31;;;;;;;6.45;5.75;;;1.40;93.60;1.00;97627.00;;;;5002421;28;88651;-61
2021/12/17 01:11:00;;;;;;;6.63;5.63;;;1.40;93.60;1.00;97632.00;;;;5020069;28;88097;-62
2021/12/17 01:13:52;;;;;;;5.63;5.03;;;1.40;93.70;1.00;97636.00;;;;5020251;28;87377;-61
2021/12/17 01:16:37;;;;;;;6.97;6.07;;;1.40;93.70;0.90;97638.00;;;;5014183;28;87039;-61
2021/12/17 01:43:12;;;;;;;4.93;4.30;;;1.20;93.50;0.80;97649.00;;;;5018830;28;88573;-61
2021/12/17 01:45:41;;;;;;;5.57;4.53;;;1.20;93.50;0.80;97643.00;;;;5020012;28;87369;-60
2021/12/17 01:48:14;;;;;;;4.40;4.00;;;1.20;93.50;0.80;97637.00;;;;5021033;28;87374;-61
2021/12/17 02:01:33;;;;;;;5.40;4.10;;;1.10;93.20;0.70;97662.00;;;;5019424;28;87029;-61
2021/12/17 02:04:05;;;;;;;6.30;4.30;;;1.00;93.30;0.70;97665.00;;;;5020511;28;88444;-61
2021/12/17 02:06:35;;;;;;;4.30;3.90;;;1.00;93.40;0.70;97678.00;;;;5019978;28;87239;-61
2021/12/17 02:09:43;;;;;;;5.00;4.60;;;1.00;93.50;0.70;97672.00;;;;5020100;28;87430;-61
2021/12/17 02:28:44;;;;;;;8.35;5.13;;;1.00;93.40;0.50;97671.00;;;;5019613;28;86419;-61
2021/12/17 02:29:16;;;;;;;7.75;7.05;;;0.90;93.50;0.50;97680.00;;;;5018768;28;87891;-60
2021/12/17 02:31:42;;;;;;;8.48;7.68;;;0.90;93.70;0.50;97683.00;;;;5000510;28;88080;-60
2021/12/17 02:36:45;;;;;;;9.20;8.40;;;0.80;93.90;0.40;97679.00;;;;5019729;28;88681;-62
2021/12/17 02:47:39;;;;;;;7.45;6.75;;;0.80;93.20;0.40;97677.00;;;;5000565;28;87707;-60
2021/12/17 02:50:10;;;;;;;7.90;7.20;;;0.80;93.30;0.40;97675.00;;;;5018218;28;87532;-60
2021/12/17 02:52:39;;;;;;;7.10;6.40;;;0.80;93.10;0.40;97683.00;;;;5024415;28;87104;-60
2021/12/17 02:55:07;;;;;;;8.00;7.20;;;0.80;93.10;0.40;97677.00;;;;5018937;28;87026;-61
2021/12/17 02:57:35;;;;;;;8.82;7.95;;;0.80;93.20;0.40;97673.00;;;;5019915;28;89698;-61
2021/12/17 03:00:07;;;;;;;7.95;7.20;;;0.80;93.30;0.40;97682.00;;;;5018991;28;89330;-61
2021/12/17 03:02:38;;;;;;;8.73;7.88;;;0.80;93.20;0.40;97681.00;;;;5019040;28;86960;-61
2021/12/17 03:05:09;;;;;;;9.27;8.27;;;0.80;93.20;0.40;97686.00;;;;5020417;28;87290;-61
2021/12/17 03:07:39;;;;;;;7.87;7.13;;;0.80;93.20;0.40;97678.00;;;;5018792;28;87617;-61
2021/12/17 03:10:10;;;;;;;7.32;6.72;;;0.80;93.10;0.40;97676.00;;;;5003983;28;88599;-61
2021/12/17 03:12:46;;;;;;;7.22;6.53;;;0.80;93.10;0.40;97679.00;;;;5023548;28;87315;-61
2021/12/17 03:23:39;;;;;;;7.30;5.78;;;0.80;92.80;0.40;97671.00;;;;5023855;28;88416;-61
2021/12/17 03:26:10;;;;;;;6.72;6.13;;;0.80;92.80;0.40;97676.00;;;;5023537;28;87396;-61
2021/12/17 03:28:40;;;;;;;;;;;0.80;92.80;0.40;97672.00;;;;5022209;28;88594;-61
2021/12/17 03:31:08;;;;;;;7.60;5.32;;;0.90;92.80;0.40;97676.00;;;;5021778;28;87081;-61
2021/12/17 03:33:41;;;;;;;6.20;5.60;;;0.80;92.70;0.30;97682.00;;;;5019027;28;86995;-61
2021/12/17 03:36:11;;;;;;;5.00;4.47;;;0.80;92.60;0.40;97679.00;;;;5021914;28;87422;-61
2021/12/17 03:38:39;;;;;;;5.82;5.22;;;0.80;92.60;0.30;97672.00;;;;5021306;28;89201;-61
2021/12/17 03:41:21;;;;;;;8.35;5.82;;;0.80;92.60;0.30;97673.00;;;;5022216;28;87515;-60
2021/12/17 03:43:59;;;;;;;7.28;6.00;;;0.80;92.80;0.40;97680.00;;;;5021238;28;87568;-61
2021/12/17 03:46:47;;;;;;;6.57;5.47;;;0.80;92.80;0.40;97684.00;;;;5022323;28;87371;-61
2021/12/17 03:49:16;;;;;;;6.63;5.53;;;0.80;92.60;0.40;97678.00;;;;5019977;28;89102;-62
2021/12/17 03:54:30;;;;;;;7.15;5.43;;;0.80;92.60;0.30;97674.00;;;;5021700;28;87003;-61
2021/12/17 03:56:56;;;;;;;7.75;5.75;;;0.70;92.60;0.30;97674.00;;;;5020829;28;87011;-61
2021/12/17 03:59:22;;;;;;;4.80;4.30;;;0.70;92.70;0.30;97674.00;;;;5004924;28;87926;-62
2021/12/17 04:01:49;;;;;;;6.90;5.00;;;0.70;92.50;0.30;97675.00;;;;5020809;28;87264;-61
2021/12/17 04:04:16;;;;;;;7.15;4.50;;;0.70;92.50;0.30;97678.00;;;;5021114;28;87491;-61
2021/12/17 04:06:43;;;;;;;6.97;5.03;;;0.70;92.50;0.30;97672.00;;;;5021175;28;86645;-61
2021/12/17 04:09:36;;;;;;;4.47;3.25;;;0.70;92.50;0.20;97674.00;;;;5019416;28;87744;-61
2021/12/17 04:12:12;;;;;;;;;;;0.70;92.20;0.20;97674.00;;;;5021415;28;87464;-61
2021/12/17 04:15:00;;;;;;;4.22;3.20;;;0.60;92.20;0.10;97686.00;;;;5021277;28;88682;-61
2021/12/17 04:17:26;;;;;;;4.70;3.97;;;0.60;92.30;0.10;97687.00;;;;5020362;28;86974;-63
2021/12/17 04:19:53;;;;;;;5.55;3.38;;;0.60;92.30;0.10;97688.00;;;;5021236;28;87659;-61
2021/12/17 04:22:21;;;;;;;9.25;4.63;;;0.60;92.50;0.20;97691.00;;;;5020729;28;87296;-61
2021/12/17 04:24:47;;;;;;;5.63;4.20;;;0.60;92.60;0.20;97698.00;;;;5021402;28;87438;-62
2021/12/17 04:27:14;;;;;;;5.10;2.78;;;0.60;92.50;0.20;97712.00;;;;5021305;28;87302;-60
2021/12/17 04:29:43;;;;;;;3.47;2.40;;;0.60;92.10;0.10;97697.00;;;;5020269;28;87724;-62
2021/12/17 04:32:10;;;;;;;2.33;2.13;;;0.60;91.40;0.10;97704.00;;;;5020445;28;87222;-60
2021/12/17 04:34:37;;;;;;;2.88;1.90;;;0.60;91.40;0.20;97703.00;;;;5019852;28;87039;-61
2021/12/17 04:37:04;;;;;;;4.40;2.15;;;0.60;91.20;0.20;97701.00;;;;5004131;28;87417;-61
2021/12/17 04:39:50;;;;;;;2.58;1.63;;;0.60;91.20;0.20;97693.00;;;;5021187;28;88498;-60
2021/12/17 04:42:29;;;;;;;2.70;1.92;;;0.60;91.00;0.20;97712.00;;;;5019334;28;90316;-60
2021/12/17 04:44:57;;;;;;;2.75;1.85;;;0.60;90.90;0.10;97709.00;;;;5016808;28;87779;-60
2021/12/17 04:58:06;;;;;;;2.00;1.80;;;0.60;90.20;0.20;97713.00;;;;5019876;28;86276;-61
2021/12/17 05:00:33;;;;;;;3.05;1.63;;;0.60;90.60;0.20;97726.00;;;;5019024;28;89500;-62
2021/12/17 05:03:14;;;;;;;2.60;1.50;;;0.60;90.60;0.20;97738.00;;;;5019963;28;87875;-61
2021/12/17 05:05:43;;;;;;;3.80;2.30;;;0.70;90.60;0.20;97730.00;;;;5018442;28;88127;-61
2021/12/17 05:08:21;;;;;;;3.22;2.20;;;0.70;91.10;0.20;97742.00;;;;5017159;28;87489;-61
2021/12/17 05:11:38;;;;;;;3.60;2.63;;;0.60;90.80;0.20;97743.00;;;;5018459;28;88616;-61
2021/12/17 05:21:42;;;;;;;4.35;3.67;;;0.60;91.20;0.20;97747.00;;;;5019114;28;87574;-61
2021/12/17 05:24:08;;;;;;;5.72;3.80;;;0.60;91.30;0.10;97769.00;;;;5002970;28;87510;-60
2021/12/17 05:26:34;;;;;;;4.13;3.58;;;0.60;91.40;0.20;97750.00;;;;5019247;28;87032;-61
2021/12/17 05:29:00;;;;;;;4.10;3.70;;;0.60;91.40;0.20;97769.00;;;;4999798;28;87074;-61
2021/12/17 05:31:35;;;;;;;6.40;4.60;;;0.60;91.50;0.20;97773.00;;;;5015230;28;90689;-61
2021/12/17 05:34:01;;;;;;;4.95;4.45;;;0.60;91.70;0.20;97776.00;;;;5016623;28;88142;-61
2021/12/17 05:36:45;;;;;;;5.00;3.38;;;0.60;91.70;0.10;97782.00;;;;5018572;28;87173;-62
2021/12/17 05:39:18;;;;;;;4.07;2.97;;;0.60;91.40;0.10;97784.00;;;;5018618;28;87276;-62
2021/12/17 05:41:45;;;;;;;4.35;2.60;;;0.60;91.10;0.10;97774.00;;;;5018783;28;87406;-62
2021/12/17 05:44:30;;;;;;;4.05;3.17;;;0.50;91.10;0.10;97776.00;;;;5019236;28;87415;-62
2021/12/17 05:46:57;;;;;;;4.07;3.30;;;0.50;91.20;0.10;97775.00;;;;5003054;28;87344;-61
2021/12/17 05:49:28;;;;;;;11.18;3.90;;;0.50;91.20;0.10;97780.00;;;;5020028;28;86974;-61
2021/12/17 05:51:57;;;;;;;5.37;4.23;;;0.50;91.30;0.10;97784.00;;;;5001909;28;90322;-62
2021/12/17 05:54:24;;;;;;;3.13;2.55;;;0.50;91.40;0.10;97776.00;;;;5018940;28;88302;-62
2021/12/17 05:56:52;;;;;;;3.00;2.70;;;0.50;91.10;0.10;97782.00;;;;5019644;28;88621;-61
2021/12/17 05:59:20;;;;;;;3.90;3.28;;;0.50;91.20;0.10;97785.00;;;;5019249;28;86958;-61
2021/12/17 06:01:48;;;;;;;5.38;3.38;;;0.50;91.40;0.10;97781.00;;;;5018953;28;87982;-60
2021/12/17 06:04:14;;;;;;;5.82;3.80;;;0.50;91.70;0.00;97768.00;;;;5019419;28;87081;-61
2021/12/17 06:06:56;;;;;;;3.50;2.93;;;0.40;91.70;-0.10;97800.00;;;;5019928;28;87627;-60
2021/12/17 06:09:22;;;;;;;6.43;4.20;;;0.30;91.80;-0.20;97792.00;;;;5020000;28;87247;-61
2021/12/17 06:11:49;;;;;;;7.93;3.90;;;0.30;92.00;-0.20;97804.00;;;;5018958;28;88746;-61
2021/12/17 06:14:17;;;;;;;5.57;3.22;;;0.20;92.10;-0.30;97803.00;;;;5002437;28;88410;-61
2021/12/17 06:16:43;;;;;;;4.15;2.90;;;0.20;92.00;-0.30;97805.00;;;;5020347;28;87131;-60
2021/12/17 06:19:17;;;;;;;4.50;3.00;;;0.20;91.70;-0.30;97802.00;;;;5019060;28;87378;-62
2021/12/17 06:21:45;;;;;;;4.38;2.53;;;0.20;91.60;-0.20;97809.00;;;;5017937;28;89646;-60
2021/12/17 06:24:11;;;;;;;4.78;2.60;;;0.20;91.40;-0.20;97799.00;;;;5030095;28;88174;-61
2021/12/17 06:26:38;;;;;;;2.83;2.42;;;0.20;91.10;-0.30;97816.00;;;;5019229;28;87129;-61
2021/12/17 06:29:06;;;;;;;7.47;2.22;;;0.30;91.00;-0.20;97822.00;;;;5017984;28;87023;-60
2021/12/17 06:31:33;;;;;;;4.13;2.10;;;0.20;91.00;-0.20;97828.00;;;;5018237;28;87583;-61
2021/12/17 06:34:00;;;;;;;3.33;2.00;;;0.30;90.90;-0.20;97822.00;;;;5017391;28;89576;-59
2021/12/17 06:36:26;;;;;;;3.22;2.15;;;0.30;90.80;-0.10;97834.00;;;;5019086;28;87210;-61
2021/12/17 06:38:52;;;;;;;3.30;1.98;;;0.30;90.70;-0.20;97840.00;;;;5018666;28;86176;-60
2021/12/17 06:41:22;;;;;;;2.95;1.88;;;0.30;90.60;-0.10;97841.00;;;;5018252;28;87444;-60
2021/12/17 06:43:48;;;;;;;1.90;1.40;;;0.30;90.50;-0.10;97828.00;;;;5017520;28;87609;-61
2021/12/17 06:46:23;;;;;;;1.50;1.27;;;0.30;90.30;-0.10;97826.00;;;;5017701;28;88466;-61
2021/12/17 06:49:08;;;;;;;1.92;1.52;;;0.40;90.10;-0.10;97830.00;;;;5018752;28;87044;-60
2021/12/17 07:00:39;;;;;;;2.30;1.80;;;0.50;89.50;0.00;97827.00;;;;5010564;28;88587;-62
2021/12/17 07:23:17;;;;;;;2.00;1.50;;;0.50;88.80;0.10;97863.00;;;;5017733;28;87511;-61
2021/12/17 07:33:59;;;;;;;2.28;2.08;;;0.60;87.90;0.20;97875.00;;;;4999718;28;86353;-60
2021/12/17 07:39:31;;;;;;;3.95;2.00;;;0.60;88.20;0.20;97903.00;;;;5007724;28;88450;-61
2021/12/17 07:42:08;;;;;;;2.63;2.00;;;0.60;88.20;0.10;97899.00;;;;5002161;28;88397;-61
2021/12/17 07:44:38;;;;;;;2.45;1.60;;;0.60;87.50;0.20;97891.00;;;;5016494;28;87392;-61
2021/12/17 07:47:29;;;;;;;;;;;0.60;86.10;0.20;97872.00;;;;5018544;28;87627;-61
2021/12/17 07:50:25;;;;;;;2.88;1.80;;;0.60;85.80;0.30;97885.00;;;;5002475;27;87427;-61
2021/12/17 07:53:26;;;;;;;3.78;2.10;;;0.70;86.00;0.40;97889.00;;;;4976675;28;87180;-60
2021/12/17 07:56:12;;;;;;;2.65;1.80;;;0.80;86.50;0.40;97886.00;;;;5007960;27;87453;-61
2021/12/17 07:58:40;;;;;;;4.20;2.90;;;0.80;86.80;0.40;97892.00;;;;5021191;28;88620;-61
2021/12/17 08:01:10;;;;;;;4.07;2.83;;;0.80;87.60;0.50;97892.00;;;;5021377;28;87099;-60
2021/12/17 08:03:39;;;;;;;4.63;3.40;;;0.80;88.40;0.50;97896.00;;;;5020904;28;87022;-61
2021/12/17 08:06:20;;;;;;;4.75;3.28;;;0.90;88.80;0.50;97894.00;;;;5021364;28;87048;-61
2021/12/17 08:09:13;;;;;;;5.40;2.90;;;0.90;89.20;0.40;97895.00;;;;5019673;28;88478;-61
2021/12/17 08:11:41;;;;;;;6.05;3.65;;;0.80;89.20;0.30;97886.00;;;;5020764;28;87117;-60
2021/12/17 08:14:13;;;;;;;6.30;3.40;;;0.70;90.00;0.30;97902.00;;;;5021009;28;86895;-61
2021/12/17 08:16:56;;;;;;;3.75;3.03;;;0.70;90.30;0.30;97905.00;;;;5020542;28;87176;-61
2021/12/17 08:25:16;;;;;;;4.30;3.00;;;0.80;90.30;0.40;97898.00;;;;5015617;28;87030;-61
2021/12/17 08:28:02;;;;;;;5.20;3.03;;;0.80;90.00;0.40;97892.00;;;;5021084;28;86343;-61
2021/12/17 08:30:38;;;;;;;3.22;2.47;;;0.80;89.20;0.40;97901.00;;;;5020334;28;87545;-61
2021/12/17 08:33:09;;;;;;;4.50;3.03;;;0.80;88.50;0.40;97889.00;;;;5019537;28;87497;-60
2021/12/17 08:35:37;;;;;;;5.50;3.08;;;0.80;88.40;0.40;97886.00;;;;5014874;28;87905;-60
2021/12/17 08:38:09;;;;;;;5.32;3.28;;;0.80;88.50;0.40;97899.00;;;;5021308;28;87297;-61
2021/12/17 08:40:37;;;;;;;7.60;3.20;;;0.80;88.80;0.40;97895.00;;;;5020252;28;87892;-61
2021/12/17 08:43:05;;;;;;;4.55;2.97;;;0.80;87.80;0.40;97897.00;;;;5003111;28;88371;-62
2021/12/17 08:45:39;;;;;;;5.07;2.83;;;0.80;88.00;0.40;97892.00;;;;5019780;28;87358;-62
2021/12/17 08:48:25;;;;;;;5.25;2.72;;;0.80;87.60;0.40;97900.00;;;;5021325;28;87138;-61
2021/12/17 08:51:10;;;;;;;4.15;3.20;;;0.80;87.80;0.40;97896.00;;;;5021992;28;87403;-60
2021/12/17 08:53:38;;;;;;;4.47;3.10;;;0.80;87.80;0.40;97907.00;;;;5019670;28;88431;-61
2021/12/17 08:56:06;;;;;;;3.85;3.08;;;0.80;88.00;0.50;97904.00;;;;5028011;28;87336;-60
2021/12/17 08:58:33;;;;;;;5.75;3.00;;;0.80;88.10;0.50;97904.00;;;;5026065;28;86971;-61
2021/12/17 09:01:03;;;;;;;4.55;3.38;;;0.90;88.20;0.50;97908.00;;;;5020117;28;88526;-61
2021/12/17 09:03:32;;;;;;;4.22;3.30;;;0.90;88.00;0.50;97916.00;;;;4999858;28;89805;-62
2021/12/17 09:06:15;;;;;;;4.70;3.67;;;0.90;88.00;0.50;97907.00;;;;5021016;28;87443;-61
2021/12/17 09:08:48;;;;;;;4.63;3.50;;;0.90;88.00;0.50;97909.00;;;;5019334;28;87355;-62
2021/12/17 09:11:14;;;;;;;7.28;3.65;;;0.90;88.00;0.50;97916.00;;;;5019516;28;86989;-61
2021/12/17 09:14:00;;;;;;;5.88;3.58;;;0.90;88.10;0.50;97912.00;;;;5020571;28;87310;-61
2021/12/17 09:16:35;;;;;;;5.20;3.30;;;0.90;88.10;0.50;97917.00;;;;5011168;28;87567;-61
2021/12/17 09:19:03;;;;;;;6.93;3.53;;;0.90;88.30;0.50;97910.00;;;;5003623;28;86795;-61
2021/12/17 09:21:38;;;;;;;7.57;3.90;;;0.90;88.10;0.60;97908.00;;;;5020212;28;87259;-60
2021/12/17 09:24:15;;;;;;;5.90;3.70;;;1.00;88.30;0.50;97909.00;;;;5016902;28;87984;-62
2021/12/17 09:27:00;;;;;;;6.90;3.80;;;1.00;88.10;0.60;97913.00;;;;5004763;28;88131;-61
2021/12/17 09:29:43;;;;;;;5.40;3.25;;;1.00;88.00;0.60;97916.00;;;;5020090;28;87492;-61
2021/12/17 09:32:09;;;;;;;6.43;3.72;;;1.00;87.50;0.70;97910.00;;;;5020263;28;87784;-60
2021/12/17 09:34:37;;;;;;;5.55;4.07;;;1.00;87.60;0.70;97911.00;;;;5020719;28;88483;-60
2021/12/17 09:37:04;;;;;;;6.05;3.92;;;1.10;87.90;0.80;97910.00;;;;5021078;28;87045;-60
2021/12/17 09:39:30;;;;;;;6.50;4.35;;;1.10;88.40;0.70;97914.00;;;;5021425;28;87433;-61
2021/12/17 09:41:56;;;;;;;5.47;4.22;;;1.10;88.60;0.80;97901.00;;;;5013453;28;88948;-61
2021/12/17 09:44:22;;;;;;;6.68;4.65;;;1.10;88.80;0.80;97911.00;;;;5020735;28;87209;-61
2021/12/17 09:46:49;;;;;;;6.25;4.00;;;1.10;89.20;0.80;97905.00;;;;5009038;28;88154;-62
2021/12/17 09:49:18;;;;;;;6.13;4.50;;;1.00;89.40;0.70;97909.00;;;;5007129;28;87103;-60
2021/12/17 09:51:46;;;;;;;7.35;5.60;;;1.00;89.80;0.70;97906.00;;;;5013354;28;89443;-61
2021/12/17 09:54:12;;;;;;;7.97;4.95;;;1.00;90.30;0.70;97904.00;;;;5015807;28;88219;-61
2021/12/17 09:56:39;;;;;;;7.70;5.13;;;1.00;90.70;0.70;97918.00;;;;5033199;28;86862;-61
2021/12/17 09:59:05;;;;;;;9.18;5.28;;;1.00;90.80;0.60;97917.00;;;;5025828;27;87277;-61
2021/12/17 10:01:38;;;;;;;6.57;5.15;;;0.90;90.80;0.60;97910.00;;;;5019692;28;87399;-61
2021/12/17 10:04:16;;;;;;;9.10;5.30;;;0.90;90.90;0.50;97920.00;;;;5011892;28;89119;-60
2021/12/17 10:06:44;;;;;;;7.22;5.80;;;0.90;91.00;0.50;97925.00;;;;5018658;28;87391;-60
2021/12/17 10:09:10;;;;;;;7.47;5.32;;;0.90;91.20;0.60;97914.00;;;;5019342;28;86219;-61
2021/12/17 10:11:37;;;;;;;7.50;5.25;;;0.90;91.20;0.60;97924.00;;;;5021465;28;88673;-62
2021/12/17 10:14:22;;;;;;;6.93;5.43;;;1.00;91.00;0.60;97917.00;;;;5017678;28;87317;-62
2021/12/17 10:16:48;;;;;;;7.88;5.50;;;0.90;91.00;0.60;97914.00;;;;5017421;28;88146;-62
2021/12/17 10:19:48;;;;;;;6.90;5.50;;;0.90;91.00;0.60;97930.00;;;;5019845;28;87366;-62
2021/12/17 10:22:17;;;;;;;10.88;6.05;;;1.00;91.20;0.70;97923.00;;;;5020674;28;87579;-62
2021/12/17 10:25:09;;;;;;;8.15;5.78;;;1.00;90.80;0.80;97929.00;;;;5026453;28;88380;-61
2021/12/17 10:27:38;;;;;;;7.43;5.72;;;1.10;90.90;0.80;97933.00;;;;5020734;28;87427;-64
2021/12/17 10:30:26;;;;;;;10.20;5.43;;;1.10;90.70;0.80;97926.00;;;;5020266;28;86981;-61
2021/12/17 10:32:55;;;;;;;7.00;4.63;;;1.20;90.50;0.80;97939.00;;;;5018772;28;90009;-62
2021/12/17 10:35:28;;;;;;;10.15;5.57;;;1.10;90.30;0.80;97941.00;;;;5018487;28;87112;-60
2021/12/17 10:38:00;;;;;;;9.43;5.82;;;1.10;90.50;0.80;97942.00;;;;5019657;28;87318;-62
2021/12/17 10:40:30;;;;;;;10.30;5.95;;;1.10;90.60;0.70;97944.00;;;;5003102;28;87015;-63
2021/12/17 10:43:09;;;;;;;6.70;5.45;;;1.00;90.30;0.70;97947.00;;;;5008653;28;88748;-62
2021/12/17 10:45:42;;;;;;;8.40;5.43;;;1.00;90.40;0.70;97953.00;;;;5019151;28;88079;-63
2021/12/17 10:48:24;;;;;;;6.32;5.07;;;1.10;90.60;0.80;97954.00;;;;5009024;28;87273;-62
2021/12/17 10:51:24;;;;;;;8.85;5.85;;;1.10;90.60;0.80;97957.00;;;;5020767;28;87423;-62
2021/12/17 10:53:54;;;;;;;7.68;5.10;;;1.10;90.40;0.80;97961.00;;;;5020624;28;88707;-63
2021/12/17 10:57:00;;;;;;;6.68;5.20;;;1.10;90.20;0.70;97960.00;;;;5016909;28;87298;-62
2021/12/17 10:59:31;;;;;;;7.85;5.40;;;1.10;89.50;0.70;97967.00;;;;5015955;28;87046;-63
2021/12/17 11:02:12;;;;;;;6.38;4.78;;;1.10;89.50;0.60;97969.00;;;;5020691;28;86287;-62
2021/12/17 11:04:43;;;;;;;6.00;4.73;;;1.00;90.00;0.60;97964.00;;;;5020011;28;87421;-62
2021/12/17 11:07:14;;;;;;;5.87;4.97;;;1.00;90.30;0.60;97970.00;;;;5021028;28;87742;-62
2021/12/17 11:09:53;;;;;;;9.20;5.80;;;0.90;90.10;0.50;97973.00;;;;5021015;28;87962;-62
2021/12/17 11:12:24;;;;;;;9.85;6.38;;;0.90;90.50;0.50;97977.00;;;;5021147;28;86973;-64
2021/12/17 11:14:51;;;;;;;8.02;5.85;;;0.90;90.50;0.50;97972.00;;;;5020947;28;87007;-61
2021/12/17 11:17:22;;;;;;;8.43;6.22;;;0.90;90.50;0.50;97974.00;;;;5027255;28;88431;-61
2021/12/17 11:19:55;;;;;;;6.40;5.57;;;0.90;90.50;0.60;97978.00;;;;5020878;28;87079;-61
2021/12/17 11:22:23;;;;;;;6.57;5.43;;;0.90;90.30;0.50;97973.00;;;;5020359;28;87052;-62
2021/12/17 11:24:50;;;;;;;6.68;5.32;;;0.90;89.30;0.50;97973.00;;;;5033099;28;87723;-61
2021/12/17 11:27:17;;;;;;;8.02;5.93;;;0.90;89.30;0.60;97980.00;;;;5018358;28;90484;-61
2021/12/17 11:29:43;;;;;;;10.32;6.00;;;1.00;89.40;0.60;97968.00;;;;5018548;28;87054;-61
2021/12/17 11:32:10;;;;;;;8.75;5.60;;;1.00;89.40;0.60;97984.00;;;;5019208;28;87958;-60
2021/12/17 11:34:36;;;;;;;7.18;5.57;;;1.00;89.40;0.60;97983.00;;;;5021150;28;88480;-63
2021/12/17 11:37:07;;;;;;;9.50;5.75;;;1.00;89.40;0.70;97989.00;;;;5022792;28;87622;-66
2021/12/17 11:39:42;;;;;;;7.40;5.88;;;1.00;89.40;0.70;97986.00;;;;5023386;28;87080;-62
2021/12/17 11:42:24;;;;;;;7.68;5.40;;;1.00;89.40;0.60;97979.00;;;;5024541;28;86922;-61
2021/12/17 11:45:22;;;;;;;7.50;4.97;;;1.00;87.80;0.70;97979.00;;;;5022964;28;87459;-61
2021/12/17 11:47:40;;;;;;;6.53;5.00;;;1.10;87.30;0.70;97985.00;;;;5021666;28;88273;-62
2021/12/17 11:50:10;;;;;;;9.20;5.82;;;1.10;87.00;0.70;97983.00;;;;5024144;28;86918;-62
2021/12/17 11:52:48;;;;;;;6.72;4.82;;;1.10;87.70;0.70;97975.00;;;;5023459;28;86756;-62
2021/12/17 11:55:24;;;;;;;8.45;5.40;;;1.10;87.00;0.70;97978.00;;;;5022527;28;89870;-61
2021/12/17 11:57:55;;;;;;;9.20;5.40;;;1.10;87.70;0.70;97980.00;;;;5023860;28;87370;-60
2021/12/17 12:00:45;;;;;;;7.18;5.00;;;1.10;87.80;0.70;97992.00;;;;5023677;28;88236;-61
2021/12/17 12:03:19;;;;;;;6.93;4.68;;;1.10;86.10;0.70;97997.00;;;;5016751;28;87305;-60
2021/12/17 12:05:49;;;;;;;7.20;5.00;;;1.10;85.20;0.70;97993.00;;;;5023482;28;88126;-62
2021/12/17 12:08:50;;;;;;;9.57;5.90;;;1.10;85.70;0.70;97995.00;;;;5023374;28;88388;-61
2021/12/17 12:11:30;;;;;;;11.63;5.82;;;1.10;86.40;0.80;97992.00;;;;5011307;28;87081;-61
2021/12/17 12:13:56;;;;;;;8.02;5.50;;;1.10;87.40;0.80;98001.00;;;;5008296;28;87017;-61
2021/12/17 12:16:30;;;;;;;8.15;5.70;;;1.10;87.30;0.80;98005.00;;;;5022486;28;88619;-61
2021/12/17 12:18:57;;;;;;;9.02;5.65;;;1.10;87.80;0.70;98003.00;;;;5023191;28;87175;-61
2021/12/17 12:21:31;;;;;;;11.55;7.28;;;1.10;87.80;0.70;98006.00;;;;5021694;28;87034;-61
2021/12/17 12:24:18;;;;;;;9.63;7.85;;;1.10;88.40;0.70;98004.00;;;;5025986;28;86938;-61
2021/12/17 12:26:45;;;;;;;9.15;5.93;;;1.10;88.50;0.70;98004.00;;;;5024155;28;89648;-61
2021/12/17 12:29:23;;;;;;;9.07;6.13;;;1.10;88.80;0.60;98006.00;;;;5023071;28;88162;-60
2021/12/17 12:31:56;;;;;;;9.00;6.07;;;1.00;88.70;0.60;98006.00;;;;5021431;28;86975;-60
2021/12/17 12:34:35;;;;;;;6.32;4.88;;;1.00;89.30;0.60;98007.00;;;;5022619;28;86903;-61
2021/12/17 12:37:25;;;;;;;9.23;5.70;;;1.00;89.40;0.60;98011.00;;;;5022743;28;88657;-60
2021/12/17 12:39:55;;;;;;;8.18;5.30;;;1.00;89.30;0.60;98015.00;;;;5022004;28;87298;-62
2021/12/17 12:42:36;;;;;;;7.50;4.95;;;1.00;89.40;0.60;98011.00;;;;5023291;28;87911;-63
2021/12/17 12:45:04;;;;;;;6.97;4.85;;;1.00;89.40;0.60;98024.00;;;;5022706;28;86831;-61
2021/12/17 12:47:40;;;;;;;6.30;4.70;;;1.00;89.30;0.50;98026.00;;;;5021548;28;87550;-62
2021/12/17 12:50:13;;;;;;;7.13;5.18;;;1.00;89.40;0.60;98023.00;;;;5023243;28;87003;-62
2021/12/17 12:53:10;;;;;;;8.68;5.57;;;0.90;89.30;0.50;98026.00;;;;5023067;28;88235;-61
2021/12/17 12:55:44;;;;;;;6.22;4.85;;;1.00;90.00;0.50;98026.00;;;;5009299;28;87057;-61
2021/12/17 12:58:15;;;;;;;6.28;5.10;;;0.90;90.00;0.50;98021.00;;;;5009182;28;89016;-62
2021/12/17 13:00:43;;;;;;;7.07;5.60;;;0.90;90.10;0.50;98027.00;;;;5022245;28;88437;-62
2021/12/17 13:03:26;;;;;;;10.10;6.03;;;0.90;90.10;0.50;98027.00;;;;5022983;28;86920;-61
2021/12/17 13:05:53;;;;;;;7.10;5.80;;;0.90;90.10;0.50;98036.00;;;;5022256;28;87045;-62
2021/12/17 13:08:22;;;;;;;7.97;5.97;;;0.90;90.20;0.50;98026.00;;;;5022724;28;88724;-62
2021/12/17 13:11:03;;;;;;;11.80;6.70;;;0.90;90.30;0.50;98037.00;;;;5022833;28;87219;-63
2021/12/17 13:13:38;;;;;;;8.32;6.20;;;0.90;90.30;0.50;98036.00;;;;5021261;28;87754;-61
2021/12/17 13:21:35;;;;;;;9.18;6.97;;;0.90;90.40;0.50;98042.00;;;;5022699;28;88225;-62
2021/12/17 13:24:18;;;;;;;8.35;6.72;;;0.90;90.40;0.50;98047.00;;;;5032202;28;87197;-62
2021/12/17 13:27:00;;;;;;;9.48;7.10;;;0.90;90.50;0.50;98050.00;;;;5024970;28;87232;-62
2021/12/17 13:29:34;;;;;;;10.60;6.50;;;0.90;90.50;0.50;98047.00;;;;5022535;28;86948;-62
2021/12/17 13:32:02;;;;;;;7.97;7.03;;;0.90;90.30;0.50;98054.00;;;;5020441;28;88408;-61
2021/12/17 13:34:58;;;;;;;7.68;6.88;;;0.90;90.30;0.50;98049.00;;;;5020541;28;87618;-61
2021/12/17 13:37:27;;;;;;;8.25;6.88;;;0.90;90.40;0.50;98064.00;;;;5018008;28;86320;-61
2021/12/17 13:40:01;;;;;;;9.48;5.68;;;0.90;90.30;0.50;98062.00;;;;5010469;28;88860;-61
2021/12/17 13:42:37;;;;;;;7.60;6.05;;;0.90;89.30;0.50;98064.00;;;;5022061;28;88371;-61
2021/12/17 13:45:06;;;;;;;10.07;7.32;;;0.90;89.30;0.50;98069.00;;;;5021005;28;88892;-62
2021/12/17 13:47:46;;;;;;;12.52;8.27;;;0.90;89.60;0.50;98068.00;;;;5021576;28;87320;-62
2021/12/17 13:50:33;;;;;;;9.00;7.18;;;0.90;90.40;0.50;98079.00;;;;5019728;28;88863;-62
2021/12/17 13:53:04;;;;;;;9.68;7.80;;;0.90;90.50;0.50;98078.00;;;;5021434;28;87278;-62
2021/12/17 13:55:41;;;;;;;9.27;7.72;;;0.90;90.20;0.50;98081.00;;;;5007603;28;87734;-62
2021/12/17 13:58:21;;;;;;;8.48;6.60;;;0.90;90.40;0.50;98085.00;;;;5018763;28;87058;-62
2021/12/17 14:00:52;;;;;;;14.68;8.18;;;0.80;90.20;0.40;98078.00;;;;5013102;28;87341;-62
2021/12/17 14:03:23;;;;;;;8.80;7.18;;;0.80;90.30;0.40;98086.00;;;;5020330;28;87671;-62
2021/12/17 14:05:57;;;;;;;10.25;8.10;;;0.80;90.40;0.40;98084.00;;;;5021520;28;87163;-62
2021/12/17 14:08:23;;;;;;;10.85;7.13;;;0.80;90.30;0.30;98099.00;;;;5022037;28;86915;-62
2021/12/17 14:10:54;;;;;;;12.13;6.65;;;0.80;90.10;0.30;98099.00;;;;5024379;28;89627;-62
2021/12/17 14:13:23;;;;;;;8.27;5.25;;;0.80;89.70;0.30;98102.00;;;;5026914;28;87561;-62
2021/12/17 14:15:52;;;;;;;6.40;5.00;;;0.70;87.50;0.30;98103.00;;;;5021202;28;86985;-62
2021/12/17 14:18:23;;;;;;;7.28;5.82;;;0.70;87.50;0.30;98109.00;;;;5002931;28;87070;-62
2021/12/17 14:20:56;;;;;;;6.13;5.47;;;0.70;87.40;0.30;98108.00;;;;5021734;28;88663;-61
2021/12/17 14:23:26;;;;;;;7.10;5.63;;;0.70;87.20;0.30;98118.00;;;;5025575;28;88238;-62
2021/12/17 14:25:54;;;;;;;7.85;5.60;;;0.70;87.30;0.30;98104.00;;;;5028590;28;87064;-63
2021/12/17 14:28:25;;;;;;;7.90;5.30;;;0.70;87.10;0.30;98107.00;;;;5021654;28;86575;-61
2021/12/17 14:31:00;;;;;;;;;;;0.70;87.30;0.30;98103.00;;;;5020531;28;88610;-62